Time;durP1;ratioP1;P1;durP2;ratioP2;P2;SDS_P1;SDS_P2;PMS_P1;PMS_P2;Temp;Humidity;BMP_temperature;BMP_pressure;BME280_temperature;BME280_humidity;BME280_pressure;Samples;Min_cycle;Max_cycle;Signal;HPM_P1;HPM_P2
2023/02/18 00:00:10;;;;;;;36.93;10.93;;;9.30;99.90;;;;;;4954444;28;20878;-66
2023/02/18 00:02:36;;;;;;;45.55;12.07;;;9.30;99.90;;;;;;4937783;28;20043;-66
2023/02/18 00:05:03;;;;;;;40.70;10.80;;;9.30;99.90;;;;;;4954091;28;20086;-71
2023/02/18 00:07:34;;;;;;;43.03;11.27;;;9.30;99.90;;;;;;4952220;28;20017;-64
2023/02/18 00:09:59;;;;;;;41.45;11.05;;;9.30;99.90;;;;;;4952847;28;20028;-65
2023/02/18 00:12:25;;;;;;;40.57;11.57;;;9.30;99.90;;;;;;4953374;28;20016;-66
2023/02/18 00:14:51;;;;;;;43.13;11.33;;;9.30;99.90;;;;;;4953394;28;20457;-74
2023/02/18 00:17:16;;;;;;;38.67;10.73;;;9.40;99.90;;;;;;4935524;28;20708;-65
2023/02/18 00:19:42;;;;;;;37.87;10.77;;;9.40;99.90;;;;;;4953175;28;20025;-66
2023/02/18 00:22:07;;;;;;;36.23;10.80;;;9.40;99.90;;;;;;4953869;28;20018;-65
2023/02/18 00:24:33;;;;;;;41.33;11.33;;;9.30;99.90;;;;;;4953557;28;20091;-70
2023/02/18 00:26:59;;;;;;;45.80;11.90;;;9.40;99.90;;;;;;4953939;28;20159;-73
2023/02/18 00:29:24;;;;;;;40.50;11.87;;;9.40;99.90;;;;;;4953627;28;20852;-66
2023/02/18 00:31:50;;;;;;;36.37;11.83;;;9.40;99.90;;;;;;4953151;28;20066;-69
2023/02/18 00:34:16;;;;;;;31.47;12.10;;;9.30;99.90;;;;;;4953811;28;20099;-73
2023/02/18 00:36:42;;;;;;;35.27;11.93;;;9.40;99.90;;;;;;4952910;28;20031;-66
2023/02/18 00:39:10;;;;;;;46.70;13.47;;;9.40;99.90;;;;;;4953241;28;21053;-73
2023/02/18 00:41:36;;;;;;;48.17;13.82;;;9.40;99.90;;;;;;4936323;28;23539;-72
2023/02/18 00:44:01;;;;;;;41.63;12.63;;;9.40;99.90;;;;;;4952946;28;23448;-66
2023/02/18 00:46:27;;;;;;;54.60;14.00;;;9.40;99.90;;;;;;4953904;28;20111;-75
2023/02/18 00:48:54;;;;;;;44.97;14.20;;;9.40;99.90;;;;;;4953465;28;20025;-68
2023/02/18 00:51:20;;;;;;;44.92;13.15;;;9.40;99.90;;;;;;4933149;28;20048;-74
2023/02/18 00:53:46;;;;;;;37.88;14.38;;;9.40;99.90;;;;;;4951654;28;20025;-67
2023/02/18 00:56:11;;;;;;;48.97;13.27;;;9.40;99.90;;;;;;4955356;28;20060;-66
2023/02/18 00:58:38;;;;;;;52.50;13.73;;;9.40;99.90;;;;;;4953049;28;20064;-76
2023/02/18 01:01:05;;;;;;;42.90;12.48;;;9.40;99.90;;;;;;4954366;28;20032;-68
2023/02/18 01:03:31;;;;;;;42.30;13.38;;;9.40;99.90;;;;;;4953400;28;20520;-69
2023/02/18 01:05:56;;;;;;;41.33;13.30;;;9.40;99.90;;;;;;4954488;28;20758;-67
2023/02/18 01:08:22;;;;;;;45.77;15.13;;;9.40;99.90;;;;;;4956252;28;20047;-67
2023/02/18 01:10:52;;;;;;;58.97;16.27;;;9.40;99.90;;;;;;4956402;28;20033;-67
2023/02/18 01:13:18;;;;;;;59.75;19.75;;;9.40;99.90;;;;;;4953347;28;20031;-66
2023/02/18 01:15:45;;;;;;;55.80;18.90;;;9.50;99.90;;;;;;4954655;28;20488;-67
2023/02/18 01:18:11;;;;;;;;;;;9.50;99.90;;;;;;4935639;28;23267;-74
2023/02/18 01:20:38;;;;;;;63.72;19.33;;;9.40;99.90;;;;;;4936619;28;19967;-66
2023/02/18 01:23:04;;;;;;;62.03;20.70;;;9.40;99.90;;;;;;4954283;28;20047;-75
2023/02/18 01:25:31;;;;;;;53.72;19.80;;;9.40;99.90;;;;;;4953634;28;20919;-72
2023/02/18 01:27:57;;;;;;;68.70;21.25;;;9.40;99.90;;;;;;4937305;28;20130;-66
2023/02/18 01:30:23;;;;;;;84.67;21.30;;;9.40;99.90;;;;;;4937320;28;20485;-72
2023/02/18 01:32:48;;;;;;;74.37;23.77;;;9.50;99.90;;;;;;4937106;28;20025;-72
2023/02/18 01:35:16;;;;;;;60.35;22.02;;;9.40;99.90;;;;;;4955828;28;20028;-73
2023/02/18 01:37:42;;;;;;;66.25;22.48;;;9.40;99.90;;;;;;4956631;28;20029;-66
2023/02/18 01:40:13;;;;;;;71.53;22.65;;;9.40;99.90;;;;;;4953205;28;20026;-68
2023/02/18 01:42:39;;;;;;;73.65;23.02;;;9.50;99.90;;;;;;4954225;28;20029;-66
2023/02/18 01:45:33;;;;;;;78.25;24.05;;;9.50;99.90;;;;;;4952682;28;20167;-69
2023/02/18 01:48:22;;;;;;;84.97;24.15;;;9.40;99.90;;;;;;4953072;28;20793;-73
2023/02/18 01:50:59;;;;;;;72.60;23.17;;;9.50;99.90;;;;;;4960738;28;20600;-65
2023/02/18 01:53:34;;;;;;;62.38;23.77;;;9.50;99.90;;;;;;4971271;28;20039;-75
2023/02/18 01:56:03;;;;;;;77.80;24.38;;;9.40;99.90;;;;;;4961873;28;20361;-72
2023/02/18 01:58:29;;;;;;;70.15;24.25;;;9.40;99.90;;;;;;4956372;28;20083;-73
2023/02/18 02:00:55;;;;;;;75.95;24.35;;;9.40;99.90;;;;;;4958368;28;20028;-72
2023/02/18 02:03:21;;;;;;;76.57;23.53;;;9.40;99.90;;;;;;4958066;28;24097;-72
2023/02/18 02:05:46;;;;;;;79.10;25.90;;;9.40;99.90;;;;;;4959923;28;20063;-73
2023/02/18 02:08:12;;;;;;;80.43;23.90;;;9.40;99.90;;;;;;4958574;28;20055;-71
2023/02/18 02:11:16;;;;;;;81.27;25.27;;;9.40;99.90;;;;;;4958649;28;20037;-74
2023/02/18 02:13:51;;;;;;;77.93;24.05;;;9.30;99.90;;;;;;4895352;28;20711;-65
2023/02/18 02:16:43;;;;;;;77.43;22.92;;;9.30;99.90;;;;;;4896640;28;20684;-71
2023/02/18 02:19:33;;;;;;;72.35;23.55;;;9.30;99.90;;;;;;4895201;28;20036;-65
2023/02/18 02:22:02;;;;;;;84.90;23.88;;;9.30;99.90;;;;;;4896300;28;20038;-68
2023/02/18 02:24:33;;;;;;;81.82;24.75;;;9.40;99.90;;;;;;4896796;28;20034;-67
2023/02/18 02:27:04;;;;;;;73.88;22.75;;;9.30;99.90;;;;;;4896581;28;21987;-65
2023/02/18 02:29:55;;;;;;;71.70;24.83;;;9.30;99.90;;;;;;4896796;28;20045;-68
2023/02/18 02:32:40;;;;;;;80.57;24.95;;;9.30;99.90;;;;;;4893843;28;20122;-75
2023/02/18 02:35:18;;;;;;;76.15;24.80;;;9.30;99.90;;;;;;4897043;28;20045;-66
2023/02/18 02:37:51;;;;;;;68.10;23.52;;;9.30;99.90;;;;;;4893404;28;20030;-66
2023/02/18 02:40:38;;;;;;;87.45;25.85;;;9.30;99.90;;;;;;4895899;28;20030;-74
2023/02/18 02:43:08;;;;;;;73.32;22.80;;;9.30;99.90;;;;;;4897615;28;20030;-65
2023/02/18 02:45:52;;;;;;;87.35;24.63;;;9.30;99.90;;;;;;4896625;28;20030;-67
2023/02/18 02:48:50;;;;;;;94.75;24.83;;;9.30;99.90;;;;;;4934901;28;20866;-68
2023/02/18 02:51:31;;;;;;;85.90;24.00;;;9.30;99.90;;;;;;4948885;28;20031;-74
2023/02/18 02:54:28;;;;;;;82.10;24.95;;;9.30;99.90;;;;;;4948850;28;20028;-70
2023/02/18 02:57:15;;;;;;;73.55;22.42;;;9.30;99.90;;;;;;4951056;28;20041;-66
2023/02/18 02:59:44;;;;;;;91.88;23.30;;;9.40;99.90;;;;;;4932185;28;20437;-70
2023/02/18 03:02:53;;;;;;;78.30;21.73;;;9.40;99.90;;;;;;4948621;28;21271;-66
2023/02/18 03:05:55;;;;;;;76.15;22.00;;;9.30;99.90;;;;;;4948017;28;20052;-66
2023/02/18 03:08:39;;;;;;;78.20;20.17;;;9.40;99.90;;;;;;4929108;28;21269;-65
2023/02/18 03:11:10;;;;;;;74.93;22.15;;;9.40;99.90;;;;;;4930286;28;20060;-70
2023/02/18 03:14:13;;;;;;;80.75;21.83;;;9.40;99.90;;;;;;4946322;28;21235;-72
2023/02/18 03:16:44;;;;;;;74.72;22.10;;;9.40;99.90;;;;;;4947659;28;20024;-65
2023/02/18 03:19:22;;;;;;;79.43;20.52;;;9.50;99.90;;;;;;4948288;28;20033;-65
2023/02/18 03:22:07;;;;;;;78.45;22.30;;;9.40;99.90;;;;;;4946475;28;20029;-73
2023/02/18 03:24:44;;;;;;;67.85;21.48;;;9.40;99.90;;;;;;4946150;28;20123;-65
2023/02/18 03:27:20;;;;;;;70.07;22.13;;;9.40;99.90;;;;;;4947151;28;20122;-74
2023/02/18 03:29:52;;;;;;;78.25;21.17;;;9.40;99.90;;;;;;4948320;28;20617;-71
2023/02/18 03:32:21;;;;;;;75.25;21.58;;;9.50;99.90;;;;;;4948972;28;20044;-66
2023/02/18 03:34:54;;;;;;;71.22;21.73;;;9.50;99.90;;;;;;4945868;28;20040;-73
2023/02/18 03:37:20;;;;;;;77.35;23.17;;;9.50;99.90;;;;;;4946502;28;20036;-66
2023/02/18 03:39:50;;;;;;;77.87;22.30;;;9.50;99.90;;;;;;4926006;28;20044;-65
2023/02/18 03:42:17;;;;;;;70.22;22.63;;;9.50;99.90;;;;;;4950325;28;20264;-72
2023/02/18 03:44:43;;;;;;;71.47;22.85;;;9.50;99.90;;;;;;4931233;28;20025;-67
2023/02/18 03:47:09;;;;;;;70.57;22.48;;;9.60;99.90;;;;;;4946942;28;20854;-68
2023/02/18 03:49:35;;;;;;;75.93;20.88;;;9.50;99.90;;;;;;4948152;28;20024;-67
2023/02/18 03:52:01;;;;;;;74.20;22.17;;;9.60;99.90;;;;;;4947649;28;20575;-68
2023/02/18 03:54:26;;;;;;;68.90;20.80;;;9.60;99.90;;;;;;4928105;28;20582;-74
2023/02/18 03:56:52;;;;;;;65.00;19.33;;;9.60;99.90;;;;;;4948538;28;20025;-74
2023/02/18 03:59:18;;;;;;;59.40;18.43;;;9.60;99.90;;;;;;4952471;28;20029;-66
2023/02/18 04:01:43;;;;;;;55.33;17.93;;;9.60;99.90;;;;;;4953424;28;20820;-68
2023/02/18 04:04:09;;;;;;;52.47;15.83;;;9.50;99.90;;;;;;4928883;28;20025;-74
2023/02/18 04:06:35;;;;;;;49.40;15.00;;;9.60;99.90;;;;;;4946140;28;20090;-72
2023/02/18 04:09:01;;;;;;;38.30;13.13;;;9.60;99.90;;;;;;4949064;28;20756;-73
2023/02/18 04:11:27;;;;;;;33.30;11.65;;;9.60;99.90;;;;;;4926691;28;20647;-67
2023/02/18 04:13:52;;;;;;;33.83;10.70;;;9.60;99.90;;;;;;4946147;28;20720;-69
2023/02/18 04:16:18;;;;;;;34.83;12.47;;;9.50;99.90;;;;;;4947042;28;20040;-73
2023/02/18 04:18:44;;;;;;;34.20;12.00;;;9.50;99.90;;;;;;4932346;28;20055;-66
2023/02/18 04:21:09;;;;;;;30.87;11.30;;;9.50;99.90;;;;;;4926808;28;20223;-67
2023/02/18 04:23:35;;;;;;;29.73;9.93;;;9.60;99.90;;;;;;4945780;28;20032;-70
2023/02/18 04:26:01;;;;;;;26.00;9.63;;;9.60;99.90;;;;;;4944476;28;20041;-73
2023/02/18 04:28:27;;;;;;;27.20;10.60;;;9.60;99.90;;;;;;4945298;28;20134;-66
2023/02/18 04:30:52;;;;;;;23.97;9.70;;;9.60;99.90;;;;;;4946304;28;20155;-73
2023/02/18 04:33:18;;;;;;;23.67;10.17;;;9.60;99.90;;;;;;4945778;28;20144;-73
2023/02/18 04:35:44;;;;;;;20.03;8.70;;;9.60;99.90;;;;;;4946884;28;21175;-71
2023/02/18 04:38:10;;;;;;;20.92;9.82;;;9.60;99.90;;;;;;4947065;28;20758;-69
2023/02/18 04:40:36;;;;;;;20.23;8.57;;;9.60;99.90;;;;;;4956102;28;20796;-67
2023/02/18 04:43:02;;;;;;;16.93;8.17;;;9.60;99.90;;;;;;4954868;28;21083;-67
2023/02/18 04:45:28;;;;;;;28.42;9.52;;;9.60;99.90;;;;;;4952527;28;20154;-69
2023/02/18 04:47:54;;;;;;;23.33;9.77;;;9.60;99.90;;;;;;4954822;28;24066;-73
2023/02/18 04:50:20;;;;;;;24.17;10.20;;;9.60;99.90;;;;;;4947379;28;20029;-74
2023/02/18 04:52:46;;;;;;;27.80;9.73;;;9.60;99.90;;;;;;4927400;28;20085;-67
2023/02/18 04:55:12;;;;;;;24.77;9.90;;;9.60;99.90;;;;;;4944220;28;20052;-67
2023/02/18 04:57:38;;;;;;;24.30;11.03;;;9.60;99.90;;;;;;4947507;28;20161;-70
2023/02/18 05:00:05;;;;;;;29.23;11.43;;;9.70;99.90;;;;;;4953053;28;20028;-68
2023/02/18 05:02:32;;;;;;;28.73;13.27;;;9.70;99.90;;;;;;4953385;28;20079;-67
2023/02/18 05:04:58;;;;;;;34.95;14.30;;;9.70;99.90;;;;;;4955822;28;20024;-67
2023/02/18 05:07:24;;;;;;;32.77;13.90;;;9.70;99.90;;;;;;4953116;28;23857;-75
2023/02/18 05:09:49;;;;;;;33.53;15.63;;;9.80;99.90;;;;;;4954012;28;20066;-67
2023/02/18 05:12:15;;;;;;;42.07;15.13;;;9.90;99.90;;;;;;4935259;28;20020;-71
2023/02/18 05:14:41;;;;;;;33.97;14.23;;;9.90;99.90;;;;;;4951961;28;20090;-68
2023/02/18 05:17:06;;;;;;;40.80;14.43;;;10.00;99.90;;;;;;4953434;28;20427;-74
2023/02/18 05:19:32;;;;;;;41.87;15.10;;;10.00;99.90;;;;;;4952829;28;20029;-68
2023/02/18 05:21:58;;;;;;;38.30;15.60;;;10.00;99.90;;;;;;4951266;28;20415;-77
2023/02/18 05:24:23;;;;;;;36.50;14.77;;;10.00;99.90;;;;;;4951063;28;20028;-75
2023/02/18 05:26:49;;;;;;;37.30;13.03;;;10.10;99.90;;;;;;4952735;28;21438;-74
2023/02/18 05:29:15;;;;;;;36.23;13.17;;;10.10;99.90;;;;;;4934250;28;20071;-67
2023/02/18 05:31:41;;;;;;;25.43;11.53;;;10.10;99.90;;;;;;4938778;28;20049;-76
2023/02/18 05:34:07;;;;;;;28.20;11.80;;;10.20;99.90;;;;;;5047804;28;20025;-75
2023/02/18 05:36:32;;;;;;;35.80;12.87;;;10.20;99.90;;;;;;5022227;28;20025;-73
2023/02/18 05:38:58;;;;;;;27.33;11.63;;;10.20;99.90;;;;;;5053785;28;20025;-75
2023/02/18 05:41:24;;;;;;;32.37;10.67;;;10.20;99.90;;;;;;5043690;28;20057;-76
2023/02/18 05:46:34;;;;;;;20.63;9.55;;;10.20;99.90;;;;;;5054960;28;20040;-75
2023/02/18 05:48:59;;;;;;;25.30;10.27;;;10.30;99.90;;;;;;5018830;28;20029;-76
2023/02/18 05:51:25;;;;;;;27.27;10.97;;;10.30;99.90;;;;;;5026223;28;20021;-75
2023/02/18 05:53:51;;;;;;;25.20;10.07;;;10.30;99.90;;;;;;5053737;28;20106;-75
2023/02/18 05:56:16;;;;;;;29.50;10.63;;;10.20;99.90;;;;;;5047748;28;20021;-75
2023/02/18 05:58:42;;;;;;;29.10;11.10;;;10.20;99.90;;;;;;5036293;28;20358;-75
2023/02/18 06:01:07;;;;;;;27.43;11.20;;;10.20;99.90;;;;;;5036132;28;20318;-77
2023/02/18 06:03:33;;;;;;;25.27;10.87;;;10.20;99.90;;;;;;4969351;28;20024;-73
2023/02/18 06:05:59;;;;;;;22.73;11.13;;;10.20;99.90;;;;;;4952433;28;20017;-74
2023/02/18 06:08:25;;;;;;;32.37;11.80;;;10.20;99.90;;;;;;4935821;28;20052;-71
2023/02/18 06:10:50;;;;;;;31.63;12.07;;;10.20;99.90;;;;;;4951647;28;20029;-74
2023/02/18 06:13:16;;;;;;;26.57;10.43;;;10.20;99.90;;;;;;4979593;28;20017;-73
2023/02/18 06:15:42;;;;;;;24.43;11.17;;;10.20;99.90;;;;;;5028265;28;20055;-73
2023/02/18 06:18:08;;;;;;;25.55;10.98;;;10.20;99.90;;;;;;5047746;28;20033;-77
2023/02/18 06:20:33;;;;;;;24.60;11.53;;;10.20;99.90;;;;;;5045247;28;20033;-74
2023/02/18 06:22:59;;;;;;;26.30;10.40;;;10.20;99.90;;;;;;5035707;28;20048;-75
2023/02/18 06:25:24;;;;;;;27.83;10.47;;;10.20;99.90;;;;;;5053836;28;20056;-75
2023/02/18 06:27:50;;;;;;;28.23;10.07;;;10.20;99.90;;;;;;5052258;28;20021;-77
2023/02/18 06:30:16;;;;;;;32.33;10.70;;;10.20;99.90;;;;;;5041563;28;20423;-75
2023/02/18 06:32:41;;;;;;;27.23;9.93;;;10.20;99.90;;;;;;5054239;28;20067;-76
2023/02/18 06:35:07;;;;;;;26.53;9.87;;;10.20;99.90;;;;;;5036462;28;20021;-78
2023/02/18 06:37:33;;;;;;;27.50;9.23;;;10.20;99.90;;;;;;5048105;28;20091;-75
2023/02/18 06:39:59;;;;;;;24.93;10.20;;;10.20;99.90;;;;;;5055032;28;20033;-75
2023/02/18 06:42:24;;;;;;;19.27;9.70;;;10.20;99.90;;;;;;5037532;28;20083;-77
2023/02/18 06:44:50;;;;;;;25.13;10.33;;;10.20;99.90;;;;;;5056144;28;20386;-75
2023/02/18 06:47:15;;;;;;;25.97;10.33;;;10.20;99.90;;;;;;5057607;28;20360;-77
2023/02/18 06:49:41;;;;;;;25.27;9.23;;;10.20;99.90;;;;;;5067817;28;20515;-75
2023/02/18 06:52:07;;;;;;;23.07;8.73;;;10.20;99.90;;;;;;5047571;28;20360;-77
2023/02/18 06:54:33;;;;;;;27.50;8.50;;;10.20;99.90;;;;;;5048294;28;20039;-72
2023/02/18 06:56:59;;;;;;;14.53;7.53;;;10.30;99.90;;;;;;5056073;28;20168;-76
2023/02/18 06:59:25;;;;;;;15.68;7.70;;;10.30;99.90;;;;;;5043611;28;20779;-76
2023/02/18 07:01:51;;;;;;;16.33;7.23;;;10.40;99.90;;;;;;5061307;28;20017;-75
2023/02/18 07:04:16;;;;;;;24.13;8.40;;;10.40;99.90;;;;;;5062275;28;20021;-73
2023/02/18 07:06:42;;;;;;;18.10;6.67;;;10.40;99.90;;;;;;5064005;28;20033;-75
2023/02/18 07:09:07;;;;;;;13.87;6.63;;;10.40;99.90;;;;;;5055983;28;20288;-70
2023/02/18 07:11:33;;;;;;;20.17;6.67;;;10.40;99.90;;;;;;5029113;28;20049;-70
2023/02/18 07:13:59;;;;;;;19.20;7.47;;;10.40;99.90;;;;;;5038043;28;20048;-76
2023/02/18 07:16:25;;;;;;;17.30;5.67;;;10.30;99.90;;;;;;5055047;28;20032;-76
2023/02/18 07:18:50;;;;;;;16.67;5.67;;;10.30;99.90;;;;;;5036708;28;20052;-72
2023/02/18 07:21:16;;;;;;;19.87;5.90;;;10.20;99.90;;;;;;5062829;28;20032;-72
2023/02/18 07:23:42;;;;;;;27.90;5.50;;;10.20;99.90;;;;;;5054385;28;20021;-75
2023/02/18 07:26:12;;;;;;;15.67;5.43;;;10.20;99.90;;;;;;5056584;28;20119;-70
2023/02/18 07:28:40;;;;;;;17.27;5.78;;;10.10;99.90;;;;;;5056290;28;20060;-74
2023/02/18 07:31:06;;;;;;;17.83;5.25;;;10.10;99.90;;;;;;5045663;28;20082;-72
2023/02/18 07:33:32;;;;;;;19.73;6.07;;;10.10;99.90;;;;;;5055332;28;20034;-74
2023/02/18 07:35:59;;;;;;;11.80;4.07;;;10.10;99.90;;;;;;5028139;28;20028;-74
2023/02/18 07:38:26;;;;;;;17.25;5.43;;;10.00;99.90;;;;;;5051673;28;20116;-74
2023/02/18 07:40:53;;;;;;;17.52;4.75;;;10.00;99.90;;;;;;5056190;28;20071;-71
2023/02/18 07:43:19;;;;;;;23.33;5.38;;;10.00;99.90;;;;;;5055983;28;20029;-73
2023/02/18 07:45:45;;;;;;;14.83;4.27;;;10.00;99.90;;;;;;5052705;28;20029;-75
2023/02/18 07:48:11;;;;;;;15.73;3.67;;;9.90;99.90;;;;;;5019356;28;20020;-74
2023/02/18 07:50:42;;;;;;;11.93;2.97;;;9.90;99.90;;;;;;5049155;28;20083;-75
2023/02/18 07:53:09;;;;;;;16.63;3.83;;;9.90;99.90;;;;;;5030300;28;20543;-77
2023/02/18 07:55:48;;;;;;;13.90;2.90;;;9.90;99.90;;;;;;5052464;28;20028;-77
2023/02/18 07:58:18;;;;;;;11.43;3.78;;;9.80;99.90;;;;;;5040680;28;20032;-76
2023/02/18 08:00:46;;;;;;;16.58;2.42;;;9.80;99.90;;;;;;5041054;28;20144;-78
2023/02/18 08:03:13;;;;;;;16.17;2.50;;;9.90;99.90;;;;;;4986441;28;20028;-71
2023/02/18 08:05:39;;;;;;;;;;;9.90;99.90;;;;;;4955744;28;20029;-70
2023/02/18 08:08:04;;;;;;;10.97;1.70;;;9.90;99.90;;;;;;5002863;28;19935;-71
2023/02/18 08:10:30;;;;;;;10.03;1.87;;;9.90;99.90;;;;;;5019284;28;20029;-76
2023/02/18 08:12:56;;;;;;;8.73;1.70;;;9.90;99.90;;;;;;5049836;28;20048;-73
2023/02/18 08:15:21;;;;;;;7.57;1.30;;;9.80;99.90;;;;;;5048222;28;20056;-73
2023/02/18 08:17:47;;;;;;;13.43;1.90;;;9.80;99.90;;;;;;5046069;28;20033;-75
2023/02/18 08:20:13;;;;;;;8.00;1.60;;;9.80;99.90;;;;;;5054267;28;20028;-74
2023/02/18 08:25:23;;;;;;;16.85;2.05;;;9.70;99.90;;;;;;5042768;28;20375;-76
2023/02/18 08:27:48;;;;;;;9.63;1.80;;;9.70;99.90;;;;;;5051221;28;20028;-75
2023/02/18 08:30:14;;;;;;;8.77;2.03;;;9.70;99.90;;;;;;5035682;28;20032;-75
2023/02/18 08:32:40;;;;;;;11.80;2.90;;;9.70;99.90;;;;;;5023937;28;20057;-71
2023/02/18 08:35:06;;;;;;;11.80;1.40;;;9.70;99.90;;;;;;5030256;28;20333;-75
2023/02/18 08:37:32;;;;;;;9.50;1.52;;;9.60;99.90;;;;;;5046100;28;20017;-75
2023/02/18 08:39:58;;;;;;;9.60;1.27;;;9.70;99.90;;;;;;5035095;28;20082;-77
2023/02/18 08:42:23;;;;;;;19.90;2.30;;;9.70;99.90;;;;;;5029264;28;20090;-75
2023/02/18 08:44:49;;;;;;;6.43;1.57;;;9.70;99.90;;;;;;5036933;28;20028;-76
2023/02/18 08:47:15;;;;;;;10.23;2.20;;;9.80;99.90;;;;;;5046873;28;20020;-74
2023/02/18 08:49:41;;;;;;;13.03;1.80;;;9.80;99.90;;;;;;5045575;28;20078;-73
2023/02/18 08:52:06;;;;;;;10.73;2.00;;;9.80;99.90;;;;;;5050107;28;20070;-76
2023/02/18 08:54:32;;;;;;;9.33;2.03;;;9.80;99.90;;;;;;4978797;28;20440;-75
2023/02/18 08:56:58;;;;;;;11.77;1.80;;;9.90;99.90;;;;;;4958361;28;20615;-73
2023/02/18 08:59:24;;;;;;;11.87;2.77;;;9.90;99.90;;;;;;4957617;28;20508;-73
2023/02/18 09:01:50;;;;;;;8.40;1.92;;;9.90;99.90;;;;;;4956947;28;20108;-73
2023/02/18 09:04:15;;;;;;;13.63;2.83;;;9.90;99.90;;;;;;4958249;28;20043;-69
2023/02/18 09:06:41;;;;;;;12.73;2.03;;;10.00;99.90;;;;;;4957033;28;20434;-68
2023/02/18 09:09:07;;;;;;;14.80;1.37;;;9.90;99.90;;;;;;4958675;28;20025;-68
2023/02/18 09:11:33;;;;;;;12.77;2.37;;;10.00;99.90;;;;;;4957040;28;20487;-71
2023/02/18 09:13:59;;;;;;;11.53;1.70;;;10.00;99.90;;;;;;4956596;28;20119;-68
2023/02/18 09:16:27;;;;;;;10.53;2.27;;;10.00;99.90;;;;;;4958187;28;20024;-75
2023/02/18 09:18:52;;;;;;;16.45;1.95;;;10.10;99.90;;;;;;5015276;28;20047;-68
2023/02/18 09:21:19;;;;;;;14.40;1.80;;;10.10;99.90;;;;;;5052961;28;20092;-76
2023/02/18 09:23:45;;;;;;;12.27;1.75;;;10.10;99.90;;;;;;5053070;28;20370;-76
2023/02/18 09:26:15;;;;;;;15.43;2.67;;;10.20;99.90;;;;;;5052905;28;20072;-76
2023/02/18 09:28:42;;;;;;;17.33;2.70;;;10.20;99.90;;;;;;5027617;28;20029;-70
2023/02/18 09:31:14;;;;;;;21.83;3.20;;;10.20;99.90;;;;;;4989899;28;20033;-74
2023/02/18 09:33:43;;;;;;;12.90;1.83;;;10.20;99.90;;;;;;4945725;28;20123;-70
2023/02/18 09:36:09;;;;;;;13.35;2.10;;;10.20;99.90;;;;;;4949435;28;20029;-75
2023/02/18 09:38:35;;;;;;;19.90;2.90;;;10.20;99.90;;;;;;4945211;28;20080;-71
2023/02/18 09:41:04;;;;;;;20.80;3.23;;;10.20;99.90;;;;;;4945425;28;20074;-74
2023/02/18 09:43:41;;;;;;;12.18;2.80;;;10.20;99.90;;;;;;4947446;28;20033;-67
2023/02/18 09:46:22;;;;;;;21.05;2.83;;;10.30;99.90;;;;;;4929175;28;20029;-69
2023/02/18 09:48:48;;;;;;;17.48;2.13;;;10.30;99.90;;;;;;4944241;28;20123;-68
2023/02/18 09:51:15;;;;;;;17.30;2.87;;;10.30;99.90;;;;;;4945826;28;20020;-75
2023/02/18 09:53:44;;;;;;;15.23;2.67;;;10.40;99.90;;;;;;4947367;28;20979;-68
2023/02/18 09:56:13;;;;;;;15.02;2.30;;;10.40;99.90;;;;;;4947153;28;20071;-68
2023/02/18 09:58:41;;;;;;;17.95;2.83;;;10.40;99.90;;;;;;4928665;28;20028;-72
2023/02/18 10:01:23;;;;;;;21.38;3.05;;;10.40;99.90;;;;;;4926892;28;20031;-69
2023/02/18 10:03:50;;;;;;;19.65;3.03;;;10.40;99.90;;;;;;4943382;28;20021;-75
2023/02/18 10:06:22;;;;;;;21.27;2.80;;;10.40;99.90;;;;;;4940610;28;20070;-68
2023/02/18 10:08:51;;;;;;;26.00;3.47;;;10.50;99.90;;;;;;4941966;28;20024;-69
2023/02/18 10:11:39;;;;;;;21.83;2.85;;;10.50;99.90;;;;;;4947627;28;20032;-68
2023/02/18 10:14:09;;;;;;;17.58;3.75;;;10.50;99.90;;;;;;4947308;28;21132;-69
2023/02/18 10:16:35;;;;;;;15.60;3.03;;;10.60;99.90;;;;;;4947688;28;20036;-69
2023/02/18 10:19:16;;;;;;;9.73;2.33;;;10.60;99.90;;;;;;4947793;28;21726;-69
2023/02/18 10:21:42;;;;;;;14.88;2.80;;;10.60;99.90;;;;;;4949610;28;20052;-68
2023/02/18 10:24:34;;;;;;;21.80;3.00;;;10.70;99.90;;;;;;4946432;28;21141;-73
2023/02/18 10:27:02;;;;;;;15.82;2.78;;;10.90;99.90;;;;;;4933278;28;20032;-69
2023/02/18 10:29:30;;;;;;;11.57;2.63;;;11.00;99.90;;;;;;4952737;28;20128;-69
2023/02/18 10:32:18;;;;;;;21.63;3.40;;;11.00;99.90;;;;;;4946788;28;20795;-70
2023/02/18 10:34:53;;;;;;;19.30;2.60;;;11.10;99.90;;;;;;4946937;28;20660;-68
2023/02/18 10:37:40;;;;;;;24.15;2.58;;;11.10;99.90;;;;;;4947648;28;20171;-70
2023/02/18 10:40:16;;;;;;;19.30;2.15;;;11.10;99.90;;;;;;4948672;28;20035;-75
2023/02/18 10:42:42;;;;;;;20.38;3.72;;;11.10;99.90;;;;;;4932689;28;20994;-72
2023/02/18 10:45:40;;;;;;;17.97;3.50;;;11.10;99.90;;;;;;4931981;28;20035;-74
2023/02/18 10:48:37;;;;;;;20.17;3.00;;;11.10;99.90;;;;;;4948270;28;20111;-69
2023/02/18 10:51:15;;;;;;;15.77;2.78;;;11.10;99.90;;;;;;4948848;28;20021;-68
2023/02/18 10:53:44;;;;;;;19.52;3.08;;;11.20;99.90;;;;;;4948995;28;20075;-73
2023/02/18 10:56:44;;;;;;;18.65;2.45;;;11.20;99.90;;;;;;4951873;28;20112;-68
2023/02/18 10:59:20;;;;;;;14.20;2.67;;;11.20;99.90;;;;;;4950808;28;20032;-69
2023/02/18 11:02:00;;;;;;;13.25;2.47;;;11.10;99.90;;;;;;4949801;28;20075;-71
2023/02/18 11:04:35;;;;;;;15.45;2.83;;;11.20;99.90;;;;;;4949780;28;20454;-68
2023/02/18 11:07:17;;;;;;;15.63;3.30;;;11.20;99.90;;;;;;4949877;28;20028;-69
2023/02/18 11:09:55;;;;;;;23.23;2.45;;;11.20;99.90;;;;;;4948696;28;20028;-68
2023/02/18 11:12:28;;;;;;;19.40;2.42;;;11.30;99.90;;;;;;4931103;28;23139;-71
2023/02/18 11:15:09;;;;;;;21.15;2.78;;;11.20;99.90;;;;;;4950313;28;20856;-74
2023/02/18 11:17:38;;;;;;;14.25;2.83;;;11.10;99.90;;;;;;4948308;28;20603;-69
2023/02/18 11:20:26;;;;;;;28.20;3.53;;;11.00;99.90;;;;;;4947848;28;20514;-72
2023/02/18 11:22:55;;;;;;;17.17;2.45;;;10.90;99.90;;;;;;4931321;28;20122;-73
2023/02/18 11:25:31;;;;;;;14.88;2.67;;;10.80;99.90;;;;;;4945955;28;20120;-70
2023/02/18 11:28:00;;;;;;;22.48;2.40;;;10.80;99.90;;;;;;4928080;28;20028;-67
2023/02/18 11:30:36;;;;;;;12.25;2.70;;;10.90;99.90;;;;;;4947459;28;20059;-76
2023/02/18 11:33:07;;;;;;;22.70;4.65;;;10.90;99.90;;;;;;4945693;28;20331;-68
2023/02/18 11:35:34;;;;;;;13.80;2.50;;;11.00;99.90;;;;;;4949337;28;20206;-70
2023/02/18 11:38:02;;;;;;;12.13;2.35;;;11.10;99.90;;;;;;4945453;28;21011;-74
2023/02/18 11:40:33;;;;;;;14.27;3.00;;;11.10;99.90;;;;;;4945201;28;20025;-71
2023/02/18 11:43:19;;;;;;;11.10;2.22;;;11.10;99.90;;;;;;4946061;28;20231;-76
2023/02/18 11:45:46;;;;;;;21.05;2.70;;;11.10;99.90;;;;;;4945586;28;20753;-75
2023/02/18 11:48:23;;;;;;;13.32;2.35;;;11.30;99.90;;;;;;4946628;28;21078;-75
2023/02/18 11:50:53;;;;;;;12.18;2.42;;;11.40;99.90;;;;;;4945567;28;20171;-74
2023/02/18 11:53:27;;;;;;;15.98;2.05;;;11.40;99.90;;;;;;4959215;28;20024;-74
2023/02/18 11:55:59;;;;;;;15.68;2.70;;;11.40;99.90;;;;;;4946358;28;20025;-74
2023/02/18 11:58:26;;;;;;;16.25;3.58;;;11.40;99.90;;;;;;4929421;28;20453;-74
2023/02/18 12:00:59;;;;;;;;;;;11.50;99.90;;;;;;4943456;28;20036;-70
2023/02/18 12:03:39;;;;;;;19.70;2.33;;;11.50;99.90;;;;;;4940594;28;19952;-74
2023/02/18 12:06:15;;;;;;;12.18;2.25;;;11.50;99.90;;;;;;5056311;28;20013;-77
2023/02/18 12:09:13;;;;;;;11.55;2.33;;;11.60;99.90;;;;;;5057920;28;20028;-76
2023/02/18 12:11:49;;;;;;;12.68;1.67;;;11.70;99.90;;;;;;5040011;28;20045;-69
2023/02/18 12:14:23;;;;;;;17.80;3.40;;;11.80;99.90;;;;;;5025691;28;20045;-78
2023/02/18 12:16:56;;;;;;;6.53;2.45;;;12.00;99.90;;;;;;5044084;28;20036;-75
2023/02/18 12:19:41;;;;;;;10.80;2.22;;;12.10;99.90;;;;;;5063164;28;20036;-73
2023/02/18 12:22:15;;;;;;;17.23;2.03;;;12.20;99.90;;;;;;5041353;28;20064;-67
2023/02/18 12:24:56;;;;;;;15.90;2.85;;;12.10;99.90;;;;;;5054096;28;20047;-76
2023/02/18 12:27:34;;;;;;;8.75;1.77;;;11.90;99.90;;;;;;5054242;28;20087;-77
2023/02/18 12:30:29;;;;;;;11.95;2.30;;;11.80;99.90;;;;;;5044169;28;20327;-67
2023/02/18 12:33:16;;;;;;;12.63;2.67;;;11.70;99.90;;;;;;5054608;28;20033;-76
2023/02/18 12:35:59;;;;;;;7.60;2.03;;;11.70;99.90;;;;;;5049567;28;20044;-76
2023/02/18 12:38:49;;;;;;;8.23;2.00;;;11.70;99.90;;;;;;5046530;28;20048;-81
2023/02/18 12:41:32;;;;;;;12.40;2.28;;;11.90;99.90;;;;;;5046174;28;20067;-77
2023/02/18 12:44:19;;;;;;;10.98;2.22;;;12.10;99.90;;;;;;5040519;28;20369;-78
2023/02/18 12:47:01;;;;;;;19.02;2.30;;;12.30;99.90;;;;;;5054715;28;20078;-79
2023/02/18 12:49:54;;;;;;;12.85;2.00;;;12.20;99.90;;;;;;5051432;28;20021;-77
2023/02/18 12:52:45;;;;;;;10.60;1.70;;;12.20;99.90;;;;;;5047974;28;20414;-76
2023/02/18 12:55:35;;;;;;;10.27;2.47;;;12.20;99.90;;;;;;5035278;28;20083;-78
2023/02/18 12:58:19;;;;;;;13.80;2.05;;;12.10;99.90;;;;;;5021345;28;20095;-76
2023/02/18 13:00:58;;;;;;;8.27;2.15;;;12.00;99.90;;;;;;5049838;28;20025;-76